createdAt,value
2023-05-11T00:00:43.202Z,99.99
2023-05-11T00:01:43.219Z,99.99
2023-05-11T00:02:43.268Z,99.99
2023-05-11T00:03:43.237Z,99.99
2023-05-11T00:04:43.489Z,99.99
2023-05-11T00:05:43.182Z,99.99
2023-05-11T00:06:43.156Z,99.99
2023-05-11T00:07:43.136Z,99.99
2023-05-11T00:08:43.123Z,99.99
2023-05-11T00:09:43.113Z,99.99
2023-05-11T00:10:43.114Z,99.99
2023-05-11T00:11:43.105Z,99.99
2023-05-11T00:12:43.090Z,99.99
2023-05-11T00:13:43.064Z,99.99
2023-05-11T00:14:43.046Z,99.99
2023-05-11T00:15:43.079Z,99.99
2023-05-11T00:16:43.059Z,99.99
2023-05-11T00:17:43.072Z,99.99
2023-05-11T00:18:43.019Z,99.99
2023-05-11T00:19:42.994Z,99.99
2023-05-11T00:20:42.974Z,99.99
2023-05-11T00:21:42.991Z,99.99
2023-05-11T00:22:44.866Z,99.99
2023-05-11T00:23:42.973Z,99.99
2023-05-11T00:24:42.932Z,99.99
2023-05-11T00:25:42.977Z,99.99
2023-05-11T00:26:42.928Z,99.99
2023-05-11T00:27:42.929Z,99.99
2023-05-11T00:28:42.911Z,99.99
2023-05-11T00:29:42.878Z,99.99
2023-05-11T00:30:42.867Z,99.99
2023-05-11T00:31:42.955Z,99.99
2023-05-11T00:32:42.888Z,99.99
2023-05-11T00:33:42.831Z,99.99
2023-05-11T00:34:42.830Z,99.99
2023-05-11T00:35:42.817Z,99.99
2023-05-11T00:36:42.812Z,99.99
2023-05-11T00:37:42.828Z,99.99
2023-05-11T00:38:42.777Z,99.99
2023-05-11T00:39:42.773Z,99.99
2023-05-11T00:40:42.759Z,99.99
2023-05-11T00:41:42.759Z,99.99
2023-05-11T00:42:42.726Z,99.79
2023-05-11T00:43:42.730Z,99.89
2023-05-11T00:44:42.714Z,99.99
2023-05-11T00:45:42.759Z,99.89
2023-05-11T00:46:42.816Z,99.48
2023-05-11T00:47:42.702Z,99.89
2023-05-11T00:48:42.660Z,99.84
2023-05-11T00:49:42.653Z,99.68
2023-05-11T00:50:42.642Z,99.48
2023-05-11T00:51:42.649Z,99.84
2023-05-11T00:52:42.613Z,99.93
2023-05-11T00:53:42.614Z,99.68
2023-05-11T00:54:42.586Z,99.68
2023-05-11T00:55:42.572Z,99.99
2023-05-11T00:56:42.566Z,99.52
2023-05-11T00:57:42.585Z,99.79
2023-05-11T00:58:42.548Z,99.89
2023-05-11T00:59:42.522Z,99.79
2023-05-11T01:00:42.549Z,99.79
2023-05-11T01:01:42.547Z,99.99
2023-05-11T01:02:42.649Z,99.48
2023-05-11T01:03:42.495Z,99.89
2023-05-11T01:04:42.477Z,99.48
2023-05-11T01:05:42.459Z,99.89
2023-05-11T01:06:42.505Z,99.93
2023-05-11T01:07:42.466Z,99.79
2023-05-11T01:08:42.456Z,99.89
2023-05-11T01:09:42.423Z,99.63
2023-05-11T01:10:42.408Z,99.73
2023-05-11T01:11:42.450Z,99.93
2023-05-11T01:12:42.392Z,99.84
2023-05-11T01:13:42.526Z,99.93
2023-05-11T01:14:42.386Z,99.58
2023-05-11T01:15:42.363Z,99.79
2023-05-11T01:16:42.382Z,99.63
2023-05-11T01:17:42.370Z,99.63
2023-05-11T01:18:42.413Z,99.73
2023-05-11T01:19:42.327Z,99.93
2023-05-11T01:20:42.305Z,99.84
2023-05-11T01:21:42.291Z,99.73
2023-05-11T01:22:42.303Z,99.89
2023-05-11T01:23:42.281Z,99.93
2023-05-11T01:24:42.254Z,99.79
2023-05-11T01:25:42.239Z,99.99
2023-05-11T01:26:42.235Z,99.99
2023-05-11T01:27:42.218Z,99.63
2023-05-11T01:28:42.207Z,99.63
2023-05-11T01:29:42.234Z,99.73
2023-05-11T01:30:42.199Z,99.79
2023-05-11T01:31:42.267Z,99.84
2023-05-11T01:32:42.336Z,99.84
2023-05-11T01:33:42.186Z,99.79
2023-05-11T01:34:42.138Z,99.79
2023-05-11T01:35:42.123Z,99.93
2023-05-11T01:36:42.119Z,99.79
2023-05-11T01:37:42.122Z,99.89
2023-05-11T01:38:42.108Z,99.99
2023-05-11T01:39:42.085Z,99.52
2023-05-11T01:40:42.072Z,99.48
2023-05-11T01:41:42.071Z,99.68
2023-05-11T01:42:42.071Z,99.48
2023-05-11T01:43:42.039Z,99.68
2023-05-11T01:44:42.035Z,99.84
2023-05-11T01:45:42.105Z,99.73
2023-05-11T01:46:42.003Z,99.89
2023-05-11T01:47:42.048Z,99.52
2023-05-11T01:48:42.007Z,99.73
2023-05-11T01:49:41.978Z,99.79
2023-05-11T01:50:41.955Z,99.84
2023-05-11T01:51:41.995Z,99.99
2023-05-11T01:52:41.955Z,99.84
2023-05-11T01:53:41.933Z,99.84
2023-05-11T01:54:41.962Z,99.99
2023-05-11T01:55:41.904Z,99.99
2023-05-11T01:56:41.929Z,99.99
2023-05-11T01:57:41.890Z,99.99
2023-05-11T01:58:41.972Z,99.99
2023-05-11T01:59:41.847Z,99.99
2023-05-11T02:00:41.878Z,99.99
2023-05-11T02:01:41.838Z,99.99
2023-05-11T02:02:41.884Z,99.99
2023-05-11T02:03:41.894Z,99.99
2023-05-11T02:04:41.823Z,99.84
2023-05-11T02:05:41.798Z,99.99
2023-05-11T02:06:41.800Z,99.99
2023-05-11T02:07:41.758Z,99.99
2023-05-11T02:08:41.747Z,99.63
2023-05-11T02:09:41.738Z,99.93
2023-05-11T02:10:41.748Z,99.84
2023-05-11T02:11:41.727Z,99.84
2023-05-11T02:12:41.714Z,99.93
2023-05-11T02:13:41.703Z,99.84
2023-05-11T02:14:41.708Z,99.84
2023-05-11T02:15:41.670Z,99.73
2023-05-11T02:16:41.686Z,99.99
2023-05-11T02:17:41.775Z,99.99
2023-05-11T02:18:41.868Z,99.99
2023-05-11T02:19:41.623Z,99.99
2023-05-11T02:20:41.629Z,99.99
2023-05-11T02:21:41.981Z,99.99
2023-05-11T02:22:44.177Z,99.93
2023-05-11T02:23:41.571Z,99.84
2023-05-11T02:24:41.566Z,99.84
2023-05-11T02:25:41.559Z,99.73
2023-05-11T02:26:41.563Z,99.73
2023-05-11T02:27:41.526Z,99.52
2023-05-11T02:28:41.534Z,99.99
2023-05-11T02:29:41.504Z,99.99
2023-05-11T02:30:41.500Z,99.63
2023-05-11T02:31:41.595Z,99.63
2023-05-11T02:32:41.532Z,99.73
2023-05-11T02:33:41.466Z,99.84
2023-05-11T02:34:41.473Z,99.73
2023-05-11T02:35:41.441Z,99.52
2023-05-11T02:36:41.450Z,99.52
2023-05-11T02:37:41.414Z,99.63
2023-05-11T02:38:41.426Z,99.84
2023-05-11T02:39:41.406Z,99.52
2023-05-11T02:40:41.428Z,99.52
2023-05-11T02:41:41.381Z,99.52
2023-05-11T02:42:41.371Z,99.63
2023-05-11T02:43:41.367Z,99.63
2023-05-11T02:44:41.342Z,99.88
2023-05-11T02:45:41.324Z,99.73
2023-05-11T02:46:41.354Z,99.93
2023-05-11T02:47:41.398Z,99.84
2023-05-11T02:48:41.305Z,99.88
2023-05-11T02:49:41.276Z,99.68
2023-05-11T02:50:41.273Z,99.68
2023-05-11T02:51:41.289Z,99.57
2023-05-11T02:52:41.272Z,99.57
2023-05-11T02:53:41.239Z,99.68
2023-05-11T02:54:41.230Z,99.84
2023-05-11T02:55:41.212Z,99.52
2023-05-11T02:56:41.202Z,99.88
2023-05-11T02:57:41.216Z,99.57
2023-05-11T02:58:41.199Z,99.68
2023-05-11T02:59:41.184Z,99.16
2023-05-11T03:00:41.263Z,99.37
2023-05-11T03:01:41.283Z,99.37
2023-05-11T03:02:41.304Z,99.16
2023-05-11T03:03:41.190Z,98.86
2023-05-11T03:04:41.112Z,99.16
2023-05-11T03:05:41.109Z,99.37
2023-05-11T03:06:41.109Z,99.37
2023-05-11T03:07:41.071Z,99.57
2023-05-11T03:08:41.104Z,99.57
2023-05-11T03:09:41.071Z,99.16
2023-05-11T03:10:41.051Z,98.96
2023-05-11T03:11:41.041Z,98.65
2023-05-11T03:12:41.038Z,98.45
2023-05-11T03:13:41.001Z,98.86
2023-05-11T03:14:41.029Z,98.45
2023-05-11T03:15:40.981Z,98.35
2023-05-11T03:16:41.013Z,98.35
2023-05-11T03:17:41.030Z,98.35
2023-05-11T03:18:40.984Z,98.65
2023-05-11T03:19:40.947Z,98.65
2023-05-11T03:20:40.934Z,98.45
2023-05-11T03:21:40.950Z,98.65
2023-05-11T03:22:40.935Z,98.86
2023-05-11T03:23:40.925Z,98.65
2023-05-11T03:24:40.919Z,98.75
2023-05-11T03:25:40.900Z,98.04
2023-05-11T03:26:40.870Z,98.24
2023-05-11T03:27:40.851Z,98.14
2023-05-11T03:28:40.873Z,98.24
2023-05-11T03:29:40.836Z,98.24
2023-05-11T03:30:40.839Z,97.94
2023-05-11T03:31:40.866Z,97.94
2023-05-11T03:32:40.845Z,97.74
2023-05-11T03:33:40.783Z,98.45
2023-05-11T03:34:40.775Z,98.24
2023-05-11T03:35:40.783Z,97.58
2023-05-11T03:36:40.756Z,97.74
2023-05-11T03:37:40.735Z,97.42
2023-05-11T03:38:40.756Z,97.63
2023-05-11T03:39:40.717Z,97.38
2023-05-11T03:40:40.748Z,97.83
2023-05-11T03:41:40.699Z,97.89
2023-05-11T03:42:40.690Z,97.63
2023-05-11T03:43:40.669Z,97.79
2023-05-11T03:44:40.664Z,97.33
2023-05-11T03:45:40.673Z,97.22
2023-05-11T03:46:40.705Z,97.58
2023-05-11T03:47:40.686Z,97.83
2023-05-11T03:48:40.627Z,97.63
2023-05-11T03:49:40.607Z,97.74
2023-05-11T03:50:40.621Z,97.38
2023-05-11T03:51:40.599Z,97.74
2023-05-11T03:52:40.577Z,97.17
2023-05-11T03:53:40.566Z,97.42
2023-05-11T03:54:40.556Z,97.22
2023-05-11T03:55:40.559Z,97.08
2023-05-11T03:56:40.582Z,97.17
2023-05-11T03:57:40.529Z,97.33
2023-05-11T03:58:40.554Z,97.28
2023-05-11T03:59:41.478Z,96.97
2023-05-11T04:00:40.503Z,96.41
2023-05-11T04:01:40.463Z,96.71
2023-05-11T04:02:40.556Z,96.36
2023-05-11T04:03:40.543Z,96.05
2023-05-11T04:04:40.534Z,96.36
2023-05-11T04:05:40.430Z,96.92
2023-05-11T04:06:40.414Z,96.92
2023-05-11T04:07:40.397Z,96.77
2023-05-11T04:08:40.412Z,96.41
2023-05-11T04:09:40.369Z,96.81
2023-05-11T04:10:40.367Z,96.15
2023-05-11T04:11:40.411Z,96.00
2023-05-11T04:12:40.397Z,95.89
2023-05-11T04:13:40.328Z,95.85
2023-05-11T04:14:40.321Z,95.44
2023-05-11T04:15:40.300Z,94.87
2023-05-11T04:16:40.340Z,95.13
2023-05-11T04:17:40.350Z,95.13
2023-05-11T04:18:40.309Z,95.18
2023-05-11T04:19:40.279Z,94.15
2023-05-11T04:20:40.253Z,93.95
2023-05-11T04:21:40.253Z,94.15
2023-05-11T04:22:40.230Z,94.15
2023-05-11T04:23:40.242Z,93.65
2023-05-11T04:24:40.208Z,93.65
2023-05-11T04:25:40.200Z,93.74
2023-05-11T04:26:40.201Z,94.46
2023-05-11T04:27:40.181Z,94.21
2023-05-11T04:28:40.231Z,94.67
2023-05-11T04:29:40.165Z,94.11
2023-05-11T04:30:40.130Z,93.60
2023-05-11T04:31:40.215Z,93.29
2023-05-11T04:32:40.155Z,93.54
2023-05-11T04:33:40.117Z,93.44
2023-05-11T04:34:40.111Z,93.24
2023-05-11T04:35:40.084Z,93.44
2023-05-11T04:36:40.072Z,93.65
2023-05-11T04:37:40.062Z,93.65
2023-05-11T04:38:40.067Z,93.65
2023-05-11T04:39:40.036Z,93.65
2023-05-11T04:40:40.039Z,93.74
2023-05-11T04:41:40.043Z,93.95
2023-05-11T04:42:40.003Z,93.85
2023-05-11T04:43:39.999Z,93.85
2023-05-11T04:44:40.004Z,93.65
2023-05-11T04:45:39.957Z,93.29
2023-05-11T04:46:40.025Z,93.70
2023-05-11T04:47:40.018Z,93.50
2023-05-11T04:48:39.969Z,93.60
2023-05-11T04:49:39.941Z,93.50
2023-05-11T04:50:39.921Z,94.01
2023-05-11T04:51:39.920Z,94.21
2023-05-11T04:52:39.908Z,94.07
2023-05-11T04:53:39.905Z,94.32
2023-05-11T04:54:39.872Z,94.17
2023-05-11T04:55:39.845Z,94.17
2023-05-11T04:56:39.848Z,93.96
2023-05-11T04:57:39.846Z,93.55
2023-05-11T04:58:39.829Z,93.35
2023-05-11T04:59:39.884Z,93.35
2023-05-11T05:00:39.826Z,93.96
2023-05-11T05:01:39.974Z,93.35
2023-05-11T05:02:39.820Z,93.45
2023-05-11T05:03:39.823Z,93.41
2023-05-11T05:04:39.761Z,92.54
2023-05-11T05:05:39.755Z,93.21
2023-05-11T05:06:39.737Z,92.94
2023-05-11T05:07:39.729Z,91.72
2023-05-11T05:08:39.721Z,92.13
2023-05-11T05:09:39.696Z,92.13
2023-05-11T05:10:39.700Z,92.33
2023-05-11T05:11:39.680Z,92.64
2023-05-11T05:12:39.687Z,91.92
2023-05-11T05:13:39.658Z,92.23
2023-05-11T05:14:39.635Z,92.33
2023-05-11T05:15:39.629Z,92.37
2023-05-11T05:16:39.657Z,92.99
2023-05-11T05:17:39.658Z,92.94
2023-05-11T05:18:39.622Z,92.74
2023-05-11T05:19:39.590Z,92.99
2023-05-11T05:20:39.617Z,92.43
2023-05-11T05:21:39.569Z,92.54
2023-05-11T05:22:39.554Z,92.23
2023-05-11T05:23:39.561Z,92.02
2023-05-11T05:24:39.525Z,92.13
2023-05-11T05:25:39.545Z,91.92
2023-05-11T05:26:39.502Z,92.02
2023-05-11T05:27:39.491Z,92.23
2023-05-11T05:28:39.501Z,91.61
2023-05-11T05:29:39.479Z,92.23
2023-05-11T05:30:39.495Z,92.23
2023-05-11T05:31:39.530Z,91.92
2023-05-11T05:32:39.495Z,91.96
2023-05-11T05:33:39.444Z,92.37
2023-05-11T05:34:39.416Z,92.27
2023-05-11T05:35:39.408Z,92.27
2023-05-11T05:36:40.386Z,92.43
2023-05-11T05:37:39.391Z,92.54
2023-05-11T05:38:39.368Z,92.47
2023-05-11T05:39:39.383Z,92.27
2023-05-11T05:40:39.337Z,92.13
2023-05-11T05:41:39.334Z,93.19
2023-05-11T05:42:39.329Z,92.58
2023-05-11T05:43:39.348Z,92.17
2023-05-11T05:44:39.321Z,93.03
2023-05-11T05:45:39.305Z,93.03
2023-05-11T05:46:39.352Z,93.50
2023-05-11T05:47:39.389Z,93.80
2023-05-11T05:48:39.296Z,94.01
2023-05-11T05:49:39.254Z,93.35
2023-05-11T05:50:39.251Z,92.54
2023-05-11T05:51:39.238Z,91.56
2023-05-11T05:52:39.206Z,91.15
2023-05-11T05:53:39.206Z,92.58
2023-05-11T05:54:39.201Z,92.99
2023-05-11T05:55:39.181Z,92.94
2023-05-11T05:56:39.159Z,93.15
2023-05-11T05:57:39.163Z,92.94
2023-05-11T05:58:39.133Z,92.02
2023-05-11T05:59:39.147Z,92.29
2023-05-11T06:00:39.112Z,91.47
2023-05-11T06:01:39.122Z,91.53
2023-05-11T06:02:39.151Z,91.53
2023-05-11T06:03:39.309Z,91.12
2023-05-11T06:04:39.151Z,90.00
2023-05-11T06:05:39.078Z,89.90
2023-05-11T06:06:39.060Z,90.51
2023-05-11T06:07:39.076Z,91.02
2023-05-11T06:08:39.039Z,88.98
2023-05-11T06:09:39.405Z,89.23
2023-05-11T06:10:39.194Z,89.63
2023-05-11T06:11:39.016Z,89.79
2023-05-11T06:12:38.996Z,89.84
2023-05-11T06:13:38.986Z,89.63
2023-05-11T06:14:38.953Z,89.94
2023-05-11T06:15:41.047Z,89.53
2023-05-11T06:16:39.125Z,89.53
2023-05-11T06:17:38.974Z,89.28
2023-05-11T06:18:38.964Z,89.49
2023-05-11T06:19:38.920Z,89.18
2023-05-11T06:20:38.898Z,89.69
2023-05-11T06:21:38.877Z,88.78
2023-05-11T06:22:38.875Z,88.71
2023-05-11T06:23:38.870Z,89.39
2023-05-11T06:24:38.833Z,89.59
2023-05-11T06:25:38.844Z,88.93
2023-05-11T06:26:38.836Z,89.55
2023-05-11T06:27:38.824Z,89.65
2023-05-11T06:28:38.793Z,88.59
2023-05-11T06:29:38.807Z,87.67
2023-05-11T06:30:38.766Z,87.98
2023-05-11T06:31:38.842Z,89.00
2023-05-11T06:32:38.984Z,87.84
2023-05-11T06:33:38.765Z,87.63
2023-05-11T06:34:38.772Z,87.79
2023-05-11T06:35:38.807Z,87.59
2023-05-11T06:36:38.721Z,86.98
2023-05-11T06:37:38.735Z,85.45
2023-05-11T06:38:38.684Z,85.61
2023-05-11T06:39:38.676Z,85.41
2023-05-11T06:40:38.676Z,85.00
2023-05-11T06:41:38.669Z,84.50
2023-05-11T06:42:38.641Z,85.61
2023-05-11T06:43:38.655Z,85.17
2023-05-11T06:44:38.636Z,85.23
2023-05-11T06:45:38.632Z,83.62
2023-05-11T06:46:38.602Z,84.64
2023-05-11T06:47:38.631Z,82.64
2023-05-11T06:48:38.572Z,82.50
2023-05-11T06:49:38.586Z,81.24
2023-05-11T06:50:38.581Z,78.91
2023-05-11T06:51:38.556Z,79.21
2023-05-11T06:52:38.552Z,79.27
2023-05-11T06:53:38.598Z,77.75
2023-05-11T06:54:38.506Z,77.69
2023-05-11T06:55:38.516Z,77.48
2023-05-11T06:56:38.614Z,77.32
2023-05-11T06:57:38.505Z,80.66
2023-05-11T06:58:38.467Z,79.41
2023-05-11T06:59:38.471Z,78.87
2023-05-11T07:00:38.461Z,78.66
2023-05-11T07:01:38.506Z,77.82
2023-05-11T07:02:38.433Z,78.53
2023-05-11T07:03:38.405Z,79.10
2023-05-11T07:04:38.428Z,76.83
2023-05-11T07:05:38.399Z,78.15
2023-05-11T07:06:38.384Z,75.85
2023-05-11T07:07:38.454Z,76.77
2023-05-11T07:08:38.362Z,76.90
2023-05-11T07:09:39.426Z,79.24
2023-05-11T07:10:38.326Z,77.04
2023-05-11T07:11:38.339Z,79.24
2023-05-11T07:12:38.296Z,79.24
2023-05-11T07:13:38.300Z,77.25
2023-05-11T07:14:38.430Z,80.76
2023-05-11T07:15:38.300Z,78.02
2023-05-11T07:16:38.424Z,77.75
2023-05-11T07:17:38.303Z,80.76
2023-05-11T07:18:38.318Z,79.44
2023-05-11T07:19:38.239Z,77.48
2023-05-11T07:20:38.260Z,77.41
2023-05-11T07:21:38.204Z,77.14
2023-05-11T07:22:38.188Z,77.86
2023-05-11T07:23:38.202Z,76.80
2023-05-11T07:24:38.192Z,76.80
2023-05-11T07:25:38.186Z,76.60
2023-05-11T07:26:38.147Z,76.80
2023-05-11T07:27:38.138Z,77.41
2023-05-11T07:28:38.120Z,75.28
2023-05-11T07:29:38.112Z,78.83
2023-05-11T07:30:38.151Z,77.98
2023-05-11T07:31:38.167Z,76.84
2023-05-11T07:32:38.141Z,77.75
2023-05-11T07:33:38.070Z,76.70
2023-05-11T07:34:38.063Z,76.50
2023-05-11T07:35:38.067Z,76.64
2023-05-11T07:36:38.031Z,76.90
2023-05-11T07:37:38.052Z,76.64
2023-05-11T07:38:38.030Z,76.64
2023-05-11T07:39:38.003Z,76.67
2023-05-11T07:40:38.024Z,77.14
2023-05-11T07:41:37.976Z,76.94
2023-05-11T07:42:37.978Z,77.92
2023-05-11T07:43:37.952Z,79.40
2023-05-11T07:44:37.942Z,77.14
2023-05-11T07:45:37.935Z,76.39
2023-05-11T07:46:38.048Z,74.67
2023-05-11T07:47:37.954Z,77.00
2023-05-11T07:48:37.918Z,75.75
2023-05-11T07:49:43.386Z,74.98
2023-05-11T07:50:38.873Z,75.38
2023-05-11T07:51:37.861Z,76.26
2023-05-11T07:52:37.853Z,76.82
2023-05-11T07:53:37.848Z,73.02
2023-05-11T07:54:37.849Z,75.85
2023-05-11T07:55:37.828Z,75.21
2023-05-11T07:56:37.851Z,74.60
2023-05-11T07:57:37.797Z,75.61
2023-05-11T07:58:37.780Z,72.92
2023-05-11T07:59:37.776Z,75.07
2023-05-11T08:00:37.774Z,74.37
2023-05-11T08:01:37.768Z,74.60
2023-05-11T08:02:37.817Z,76.50
2023-05-11T08:03:37.739Z,74.27
2023-05-11T08:04:37.829Z,76.29
2023-05-11T08:05:37.828Z,77.26
2023-05-11T08:06:37.708Z,75.01
2023-05-11T08:07:40.364Z,74.66
2023-05-11T08:08:37.678Z,72.64
2023-05-11T08:09:37.712Z,73.02
2023-05-11T08:10:37.646Z,73.36
2023-05-11T08:11:37.671Z,74.16
2023-05-11T08:12:37.642Z,75.35
2023-05-11T08:13:37.618Z,76.83
2023-05-11T08:14:37.618Z,77.00
2023-05-11T08:15:37.603Z,73.90
2023-05-11T08:16:37.707Z,76.32
2023-05-11T08:17:37.680Z,74.81
2023-05-11T08:18:37.593Z,76.83
2023-05-11T08:19:37.552Z,76.59
2023-05-11T08:20:37.568Z,74.37
2023-05-11T08:21:37.532Z,75.21
2023-05-11T08:22:37.516Z,76.50
2023-05-11T08:23:37.510Z,76.50
2023-05-11T08:24:37.510Z,75.34
2023-05-11T08:25:37.497Z,75.14
2023-05-11T08:26:37.472Z,73.52
2023-05-11T08:27:37.480Z,74.87
2023-05-11T08:28:37.543Z,75.38
2023-05-11T08:29:37.452Z,73.36
2023-05-11T08:30:37.424Z,73.73
2023-05-11T08:31:37.447Z,75.28
2023-05-11T08:32:46.695Z,75.15
2023-05-11T08:33:39.020Z,74.74
2023-05-11T08:34:37.505Z,75.59
2023-05-11T08:35:37.376Z,75.15
2023-05-11T08:36:37.372Z,75.25
2023-05-11T08:37:37.372Z,74.60
2023-05-11T08:38:37.344Z,73.90
2023-05-11T08:39:46.644Z,75.65
2023-05-11T08:40:38.317Z,74.91
2023-05-11T08:41:37.314Z,75.42
2023-05-11T08:42:37.300Z,75.31
2023-05-11T08:43:37.287Z,75.79
2023-05-11T08:44:37.316Z,73.52
2023-05-11T08:45:38.275Z,73.83
2023-05-11T08:46:37.250Z,73.86
2023-05-11T08:47:37.271Z,73.66
2023-05-11T08:48:37.225Z,73.56
2023-05-11T08:49:37.245Z,73.29
2023-05-11T08:50:37.224Z,73.59
2023-05-11T08:51:37.206Z,74.00
2023-05-11T08:52:37.176Z,74.87
2023-05-11T08:53:37.190Z,72.75
2023-05-11T08:54:37.179Z,73.66
2023-05-11T08:55:37.152Z,73.93
2023-05-11T08:56:37.145Z,72.81
2023-05-11T08:57:37.147Z,72.51
2023-05-11T08:58:37.122Z,72.41
2023-05-11T08:59:37.121Z,72.41
2023-05-11T09:00:37.140Z,72.55
2023-05-11T09:01:37.163Z,71.53
2023-05-11T09:02:37.124Z,71.91
2023-05-11T09:03:37.137Z,73.63
2023-05-11T09:04:37.065Z,74.20
2023-05-11T09:05:37.162Z,72.68
2023-05-11T09:06:37.020Z,73.69
2023-05-11T09:07:37.017Z,72.72
2023-05-11T09:08:37.005Z,74.37
2023-05-11T09:09:37.019Z,73.52
2023-05-11T09:10:36.986Z,72.61
2023-05-11T09:11:36.994Z,73.08
2023-05-11T09:12:36.966Z,71.47
2023-05-11T09:13:36.973Z,72.44
2023-05-11T09:14:36.935Z,72.81
2023-05-11T09:15:38.037Z,70.49
2023-05-11T09:16:37.786Z,70.86
2023-05-11T09:17:36.903Z,72.55
2023-05-11T09:18:36.939Z,70.79
2023-05-11T09:19:36.874Z,71.20
2023-05-11T09:20:36.902Z,71.47
2023-05-11T09:21:36.917Z,70.76
2023-05-11T09:22:36.946Z,68.54
2023-05-11T09:23:36.841Z,69.89
2023-05-11T09:24:36.833Z,69.82
2023-05-11T09:25:36.837Z,72.31
2023-05-11T09:26:36.835Z,70.66
2023-05-11T09:27:36.785Z,68.77
2023-05-11T09:28:36.973Z,71.30
2023-05-11T09:29:36.773Z,70.79
2023-05-11T09:30:36.782Z,71.23
2023-05-11T09:31:36.787Z,70.83
2023-05-11T09:32:36.787Z,72.44
2023-05-11T09:33:36.727Z,72.48
2023-05-11T09:35:37.716Z,69.78
2023-05-11T09:36:36.703Z,72.21
2023-05-11T09:37:36.731Z,72.58
2023-05-11T09:38:36.690Z,70.76
2023-05-11T09:39:42.050Z,68.41
2023-05-11T09:40:37.698Z,68.71
2023-05-11T09:41:36.641Z,70.69
2023-05-11T09:42:36.627Z,71.60
2023-05-11T09:43:36.642Z,71.77
2023-05-11T09:44:36.605Z,72.34
2023-05-11T09:45:36.593Z,71.60
2023-05-11T09:46:36.618Z,71.30
2023-05-11T09:47:36.599Z,69.08
2023-05-11T09:48:36.619Z,70.66
2023-05-11T09:49:36.579Z,68.14
2023-05-11T09:50:36.543Z,68.48
2023-05-11T09:51:36.522Z,68.77
2023-05-11T09:52:36.514Z,68.37
2023-05-11T09:53:36.535Z,68.37
2023-05-11T09:54:36.492Z,69.18
2023-05-11T09:55:36.484Z,68.51
2023-05-11T09:56:36.493Z,67.63
2023-05-11T09:57:36.472Z,68.74
2023-05-11T09:58:36.455Z,69.11
2023-05-11T09:59:36.455Z,71.03
2023-05-11T10:00:36.427Z,69.52
2023-05-11T10:01:36.473Z,68.51
2023-05-11T10:02:36.488Z,67.43
2023-05-11T10:03:36.474Z,68.74
2023-05-11T10:04:36.456Z,70.49
2023-05-11T10:05:36.394Z,68.30
2023-05-11T10:06:36.356Z,70.09
2023-05-11T10:07:36.377Z,69.38
2023-05-11T10:08:36.334Z,68.14
2023-05-11T10:09:36.327Z,69.05
2023-05-11T10:10:36.342Z,66.83
2023-05-11T10:11:36.302Z,66.93
2023-05-11T10:12:36.302Z,66.63
2023-05-11T10:13:36.282Z,68.71
2023-05-11T10:14:36.298Z,66.83
2023-05-11T10:15:36.257Z,68.71
2023-05-11T10:16:36.480Z,67.10
2023-05-11T10:17:36.269Z,66.50
2023-05-11T10:18:36.270Z,67.57
2023-05-11T10:19:36.211Z,68.35
2023-05-11T10:20:36.266Z,63.57
2023-05-11T10:21:36.209Z,66.93
2023-05-11T10:22:36.243Z,69.21
2023-05-11T10:23:36.165Z,67.50
2023-05-11T10:24:36.176Z,66.80
2023-05-11T10:25:36.140Z,66.47
2023-05-11T10:26:36.156Z,66.43
2023-05-11T10:27:36.131Z,66.03
2023-05-11T10:28:36.116Z,65.53
2023-05-11T10:29:36.114Z,65.93
2023-05-11T10:30:36.101Z,66.13
2023-05-11T10:31:36.090Z,64.15
2023-05-11T10:32:36.135Z,65.89
2023-05-11T10:33:36.053Z,66.93
2023-05-11T10:34:36.072Z,68.04
2023-05-11T10:35:36.024Z,66.22
2023-05-11T10:36:36.060Z,64.38
2023-05-11T10:37:36.015Z,65.89
2023-05-11T10:38:36.016Z,65.72
2023-05-11T10:39:36.012Z,64.84
2023-05-11T10:40:35.995Z,65.75
2023-05-11T10:41:35.960Z,65.55
2023-05-11T10:42:35.959Z,66.22
2023-05-11T10:43:35.956Z,64.07
2023-05-11T10:44:35.960Z,64.86
2023-05-11T10:45:35.944Z,66.20
2023-05-11T10:46:35.921Z,63.68
2023-05-11T10:47:35.911Z,65.87
2023-05-11T10:48:35.889Z,63.35
2023-05-11T10:49:35.888Z,62.18
2023-05-11T10:50:35.885Z,62.91
2023-05-11T10:51:35.856Z,63.82
2023-05-11T10:52:35.857Z,64.65
2023-05-11T10:53:35.817Z,64.65
2023-05-11T10:54:35.816Z,63.85
2023-05-11T10:55:35.820Z,63.54
2023-05-11T10:56:35.791Z,62.97
2023-05-11T10:57:35.795Z,63.64
2023-05-11T10:58:35.765Z,66.42
2023-05-11T10:59:35.766Z,63.90
2023-05-11T11:00:35.851Z,64.78
2023-05-11T11:01:35.818Z,65.66
2023-05-11T11:02:35.783Z,67.84
2023-05-11T11:03:35.725Z,66.20
2023-05-11T11:04:35.724Z,64.36
2023-05-11T11:05:35.750Z,62.55
2023-05-11T11:06:35.682Z,62.35
2023-05-11T11:07:35.679Z,62.65
2023-05-11T11:08:36.290Z,62.35
2023-05-11T11:09:35.650Z,62.51
2023-05-11T11:10:35.666Z,64.82
2023-05-11T11:11:35.620Z,63.62
2023-05-11T11:12:35.621Z,62.30
2023-05-11T11:13:35.634Z,62.41
2023-05-11T11:14:35.596Z,63.31
2023-05-11T11:15:35.594Z,65.30
2023-05-11T11:16:35.616Z,64.76
2023-05-11T11:17:35.954Z,62.08
2023-05-11T11:18:35.638Z,64.03
2023-05-11T11:19:35.538Z,62.42
2023-05-11T11:20:35.549Z,60.91
2023-05-11T11:21:35.513Z,61.69
2023-05-11T11:22:35.641Z,62.49
2023-05-11T11:23:35.505Z,62.23
2023-05-11T11:24:35.506Z,62.53
2023-05-11T11:25:35.471Z,63.87
2023-05-11T11:26:35.475Z,58.49
2023-05-11T11:27:35.462Z,58.90
2023-05-11T11:28:35.438Z,61.44
2023-05-11T11:29:35.432Z,62.05
2023-05-11T11:30:35.415Z,59.70
2023-05-11T11:31:35.483Z,59.41
2023-05-11T11:32:35.483Z,58.75
2023-05-11T11:33:35.379Z,60.16
2023-05-11T11:34:35.416Z,58.42
2023-05-11T11:35:35.372Z,61.74
2023-05-11T11:36:35.352Z,58.22
2023-05-11T11:37:35.332Z,63.42
2023-05-11T11:38:35.326Z,61.35
2023-05-11T11:39:35.331Z,59.72
2023-05-11T11:40:46.898Z,61.33
2023-05-11T11:41:36.313Z,62.00
2023-05-11T11:42:35.297Z,59.83
2023-05-11T11:43:37.262Z,54.82
2023-05-11T11:44:35.270Z,55.35
2023-05-11T11:45:35.251Z,56.82
2023-05-11T11:46:35.303Z,60.44
2023-05-11T11:47:35.307Z,62.15
2023-05-11T11:48:35.214Z,63.32
2023-05-11T11:49:35.215Z,63.02
2023-05-11T11:50:35.201Z,58.60
2023-05-11T11:51:35.183Z,61.01
2023-05-11T11:52:35.174Z,58.20
2023-05-11T11:53:35.162Z,59.23
2023-05-11T11:54:35.159Z,57.35
2023-05-11T11:55:35.155Z,60.09
2023-05-11T11:56:35.136Z,60.57
2023-05-11T11:57:35.142Z,60.06
2023-05-11T11:58:35.098Z,59.64
2023-05-11T11:59:35.113Z,59.17
2023-05-11T12:00:35.076Z,59.30
2023-05-11T12:01:35.057Z,64.34
2023-05-11T12:02:35.192Z,60.71
2023-05-11T12:03:35.259Z,61.17
2023-05-11T12:04:35.103Z,60.97
2023-05-11T12:05:35.032Z,62.55
2023-05-11T12:06:35.029Z,62.18
2023-05-11T12:07:34.987Z,63.76
2023-05-11T12:08:34.984Z,63.26
2023-05-11T12:09:34.979Z,63.56
2023-05-11T12:10:34.973Z,62.83
2023-05-11T12:11:34.967Z,65.25
2023-05-11T12:12:34.969Z,63.50
2023-05-11T12:13:34.934Z,62.73
2023-05-11T12:14:34.919Z,64.72
2023-05-11T12:15:34.903Z,62.49
2023-05-11T12:16:34.931Z,61.99
2023-05-11T12:17:34.917Z,61.92
2023-05-11T12:18:34.979Z,61.61
2023-05-11T12:19:34.886Z,61.21
2023-05-11T12:20:34.858Z,60.06
2023-05-11T12:21:34.828Z,61.24
2023-05-11T12:22:34.845Z,60.57
2023-05-11T12:23:34.836Z,60.29
2023-05-11T12:24:34.828Z,61.98
2023-05-11T12:25:34.793Z,61.30
2023-05-11T12:26:34.781Z,61.88
2023-05-11T12:27:34.768Z,63.70
2023-05-11T12:28:34.778Z,62.48
2023-05-11T12:29:34.769Z,62.11
2023-05-11T12:30:34.756Z,65.31
2023-05-11T12:31:34.792Z,64.20
2023-05-11T12:32:34.741Z,64.61
2023-05-11T12:33:34.700Z,64.61
2023-05-11T12:34:34.709Z,64.07
2023-05-11T12:35:34.679Z,64.87
2023-05-11T12:36:34.730Z,64.34
2023-05-11T12:37:34.656Z,64.95
2023-05-11T12:38:34.650Z,66.25
2023-05-11T12:39:34.655Z,64.64
2023-05-11T12:40:34.659Z,64.84
2023-05-11T12:41:34.609Z,64.75
2023-05-11T12:42:35.264Z,63.73
2023-05-11T12:43:34.617Z,63.43
2023-05-11T12:44:34.598Z,64.67
2023-05-11T12:45:34.565Z,65.85
2023-05-11T12:46:34.638Z,65.75
2023-05-11T12:47:34.609Z,64.44
2023-05-11T12:48:34.534Z,65.75
2023-05-11T12:49:34.518Z,67.07
2023-05-11T12:50:34.516Z,65.92
2023-05-11T12:51:34.499Z,66.33
2023-05-11T12:52:34.511Z,62.26
2023-05-11T12:53:34.494Z,64.89